createdAt,value
2023-03-12T00:06:37.155Z,1006.85
2023-03-12T00:21:37.626Z,1006.95
2023-03-12T00:36:37.270Z,1006.90
2023-03-12T00:51:37.792Z,1007.11
2023-03-12T01:06:37.877Z,1007.31
2023-03-12T01:21:37.558Z,1007.31
2023-03-12T01:36:37.875Z,1007.43
2023-03-12T01:51:38.266Z,1007.49
2023-03-12T02:06:38.348Z,1007.56
2023-03-12T02:21:38.509Z,1007.59
2023-03-12T02:36:38.534Z,1007.69
2023-03-12T02:51:38.616Z,1007.96
2023-03-12T03:06:38.757Z,1007.99
2023-03-12T03:21:38.810Z,1008.14
2023-03-12T03:36:39.420Z,1008.23
2023-03-12T03:51:40.049Z,1008.42
2023-03-12T04:06:40.145Z,1008.62
2023-03-12T04:21:40.287Z,1008.70
2023-03-12T04:36:40.445Z,1008.72
2023-03-12T04:51:40.965Z,1008.88
2023-03-12T05:06:41.051Z,1008.99
2023-03-12T05:21:41.190Z,1008.98
2023-03-12T05:36:41.294Z,1008.92
2023-03-12T05:51:41.755Z,1008.91
2023-03-12T06:06:41.489Z,1008.88
2023-03-12T06:21:41.554Z,1008.87
2023-03-12T06:36:41.665Z,1009.07
2023-03-12T06:51:41.786Z,1009.13
2023-03-12T07:06:42.354Z,1009.20
2023-03-12T07:21:41.992Z,1009.31
2023-03-12T07:36:42.621Z,1009.43
2023-03-12T07:51:43.648Z,1009.54
2023-03-12T08:06:44.019Z,1009.57
2023-03-12T08:21:45.297Z,1009.65
2023-03-12T08:36:44.938Z,1009.55
2023-03-12T08:51:45.474Z,1009.63
2023-03-12T09:06:45.616Z,1009.56
2023-03-12T09:21:45.250Z,1009.40
2023-03-12T09:36:45.860Z,1009.56
2023-03-12T09:51:46.335Z,1009.34
2023-03-12T10:06:47.311Z,1009.20
2023-03-12T10:21:48.153Z,1009.19
2023-03-12T10:36:49.456Z,1009.07
2023-03-12T10:51:49.535Z,1008.83
2023-03-12T11:06:49.654Z,1008.75
2023-03-12T11:21:50.172Z,1008.50
2023-03-12T11:36:49.928Z,1008.36
2023-03-12T11:51:50.435Z,1008.19
2023-03-12T12:06:50.544Z,1007.78
2023-03-12T12:21:50.175Z,1007.35
2023-03-12T12:36:50.325Z,1007.21
2023-03-12T12:51:50.350Z,1007.03
2023-03-12T13:06:50.553Z,1006.94
2023-03-12T13:21:50.573Z,1006.66
2023-03-12T13:36:51.070Z,1006.69
2023-03-12T13:51:50.736Z,1006.45
2023-03-12T14:06:51.754Z,1006.45
2023-03-12T14:21:51.840Z,1006.13
2023-03-12T14:36:51.515Z,1006.23
2023-03-12T14:51:51.599Z,1006.10
2023-03-12T15:06:52.148Z,1005.96
2023-03-12T15:21:51.762Z,1005.78
2023-03-12T15:36:51.911Z,1005.62
2023-03-12T15:51:52.463Z,1005.59
2023-03-12T16:06:52.992Z,1005.26
2023-03-12T16:21:52.702Z,1005.20
2023-03-12T16:36:52.815Z,1005.02
2023-03-12T16:51:53.343Z,1005.19
2023-03-12T17:06:54.743Z,1005.08
2023-03-12T17:21:55.113Z,1004.89
2023-03-12T17:36:55.425Z,1004.80
2023-03-12T17:51:55.494Z,1004.65
2023-03-12T18:06:56.012Z,1004.50
2023-03-12T18:21:55.690Z,1004.32
2023-03-12T18:36:55.788Z,1004.26
2023-03-12T18:51:55.917Z,1004.14
2023-03-12T19:06:56.033Z,1004.04
2023-03-12T19:21:56.111Z,1003.82
2023-03-12T19:36:56.225Z,1003.76
2023-03-12T19:51:56.710Z,1003.72
2023-03-12T20:06:56.468Z,1003.49
2023-03-12T20:21:56.493Z,1003.57
2023-03-12T20:36:56.631Z,1003.48
2023-03-12T20:51:56.691Z,1003.50
2023-03-12T21:06:56.804Z,1003.66
2023-03-12T21:21:56.893Z,1003.65
2023-03-12T21:36:57.009Z,1003.50
2023-03-12T21:51:57.093Z,1003.46
2023-03-12T22:06:57.704Z,1003.63
2023-03-12T22:21:57.827Z,1003.38
2023-03-12T22:36:57.907Z,1003.18
2023-03-12T22:51:58.006Z,1003.32
2023-03-12T23:07:12.989Z,1003.21
2023-03-12T23:22:03.224Z,1003.04
2023-03-12T23:37:03.704Z,1003.01
2023-03-12T23:52:03.834Z,1003.00
